Sei sulla pagina 1di 3

RIOFREDDO MTB

RIOFREDDO (FC) 04/07/2021


gran fondo (30 KM)

Pos Nr. Nominativo Atleta G Nato il Cat Pos Nome Squadra Tempo Gap Km/h
1 25 BUCCI Emanuele M 1984 M2 1 ASD FRECCE ROSSE RIMINI 01:26:54.10 - 20,713
2 30 CORSETTI Nicola M 1981 M3 1 GS AVIS PRATOVECCHIO 01:28:16.59 +1:22 20,390
3 28 COLLINI Francesco M 1986 M2 2 ESSERE ASD ARL 01:30:34.34 +3:40 19,874
4 5 CHIARINI Luca M 1978 M3 2 BOMBARDIER SQUADRA CORSE ASD 01:32:55.33 +6:01 19,371
5 185 CACCHI Luca M 2001 ELMT 1 TEAM TORPEDO BIKE 01:33:31.57 +6:37 19,246
6 45 CALLINI Riccardo M 1994 ELMT 2 TEAM PASSION FAENTINA 01:34:26.08 +7:31 19,061
7 47 BALLARINI Michele M 1995 ELMT 3 ASDC VALLE DEL CONCA NORDIC WALKING 01:34:48.08 +7:53 18,987
8 183 BRIZZI Nicola M 1986 M2 3 CYCLING TEAM ALTOTEVERE 01:35:10.07 +8:15 18,914
9 171 BUSSI Simone M 1978 M3 3 TEAM ERREPI ASD 01:35:23.07 +8:28 18,871
10 16 FILETTI Michael M 1992 ELMT 4 TEAM MONDOBICI TECNOPLAST 01:35:41.82 +8:47 18,809
11 43 CAPPELLI Alex M 1988 M1 1 ASD FRECCE ROSSE RIMINI 01:36:10.07 +9:15 18,717
12 26 DELLABIANCIA Matteo M 1990 M1 2 ASD POLISPORTIVA NOB CLUB 01:36:56.82 +10:02 18,567
13 44 GALAMINI Maurizio M 1964 M6 1 ASD IMOLA BIKE 01:38:18.82 +11:24 18,309
14 17 DI PARDO Massimo M 1978 M3 4 TEAM MONDOBICI TECNOPLAST 01:38:25.81 +11:31 18,287
15 2 SERCECCHI Andrea M 1973 M4 1 ASD IMOLA BIKE 01:38:34.56 +11:40 18,260
16 74 GIACOMONI Francesco M 1981 M3 5 BOMBARDIER SQUADRA CORSE ASD 01:38:39.32 +11:45 18,245
17 204 GIACOMINI Maurizio M 1976 M4 2 ASD FRECCE ROSSE RIMINI 01:38:49.07 +11:54 18,215
18 7 CURCIO Marco M 1974 M4 3 KTM ASD SCATENATI 01:39:17.57 +12:23 18,128
19 224 CECCHI Francesco M 1981 M3 6 ONLY BIKERS 01:39:57.56 +13:03 18,007
20 22 TRONCONI Nicolo' M 1989 M1 3 TEAM PASSION FAENTINA 01:40:22.81 +13:28 17,932
21 174 MORETTI Christopher M 1986 M2 4 GIANT DRT ASD 01:41:01.56 +14:07 17,817
22 14 GIANOTTI Federico M 1971 M5 1 TEAM DUE RUOTE BOLOGNA 01:41:19.06 +14:24 17,766
23 31 SCARPONI Luca M 2004 JUN 1 GRAVITY TEAM 01:41:55.05 +15:00 17,661
24 166 CANESTRINI Loris M 1968 M5 2 COMERO BIKE 01:42:20.55 +15:26 17,588
25 133 ROSSI Andrea M 1967 M5 3 BARACCA LUGO MTB 01:42:52.80 +15:58 17,496
26 49 CICOGNANI Fabrizio M 1985 M2 5 UISP COMIT. TERR.LE RAVENNA-LUGO 01:43:14.30 +16:20 17,435
27 203 CELLAURO Andrea M 1975 M4 4 ASD BLACK ROAD 01:43:37.04 +16:42 17,372
28 172 NALDINI Fabio M 1986 M2 6 UISP TERRITORIALE 01:43:45.54 +16:51 17,348
29 68 FANTINI Fabio M 1980 M3 7 ASDC VALLE DEL CONCA NORDIC WALKING 01:44:01.05 +17:06 17,305
30 110 CESARETTI Simone M 1985 M2 7 ASD VALMARACING TEAM 01:44:09.80 +17:15 17,281
31 23 FERRI Gabriele M 2004 JUN 2 ASD LE SALINE NATURA E SPORT 01:44:12.30 +17:18 17,274
32 15 PUGLISI Daniele M 1990 M1 4 ASD BLACK ROAD 01:44:15.04 +17:20 17,266
33 205 PEROTTI Andrea M 1975 M4 5 GS AUTOCARROZZERIA RALLY 01:44:24.29 +17:30 17,241
34 70 CORTESI Nicholas M 1984 M2 8 180 BPM 01:44:38.79 +17:44 17,201
35 163 SILVANI Andrea M 1986 M2 9 COMERO BIKE 01:44:44.04 +17:49 17,186
36 177 FACCIANI Matteo M 1984 M2 10 BIDENTE BIKE PROJECT ASD 01:45:20.55 +18:26 17,087
37 164 GREGORI Daniele M 1972 M4 6 COMERO BIKE 01:45:41.30 +18:47 17,031
38 59 SAPORETTI Patrick M 1988 M1 5 AFTER SKULL ROUGE RACING 01:45:58.28 +19:04 16,986
39 225 FIUMANA Thomas M 1990 M1 6 BIKE CORNER BERTINORO ASD 01:46:01.05 +19:06 16,978
40 219 MENGHETTI Fabio M 1969 M5 4 VELO CLUB GARDA 01:46:02.04 +19:07 16,976
41 48 RINALDI Andrea M 1988 M1 7 GRUPPO TNT 01:46:33.79 +19:39 16,891
42 41 ZOLA Claudio M 1976 M4 7 BOMBARDIER SQUADRA CORSE ASD 01:46:48.03 +19:53 16,854
43 56 MONTANARI Oscar M 1970 M5 5 ASDC VALLE DEL CONCA NORDIC WALKING 01:47:08.28 +20:14 16,801
44 179 PERUZZI Claudio M 1963 M6 2 POL. AICS AS CICOLAMATORIALE 01:47:15.29 +20:21 16,782
45 4 PRETOLANI Tiberio M 1964 M6 3 BOMBARDIER SQUADRA CORSE ASD 01:47:44.04 +20:49 16,708
46 178 ANAGNI Tommaso M 1981 M3 8 BIDENTE BIKE PROJECT ASD 01:47:49.28 +20:55 16,694
47 8 SALVATORI Stefano M 1959 M7 1 KTM ASD SCATENATI 01:48:25.53 +21:31 16,601
48 231 QUARANTINI Davide M 1971 M5 6 ASD IMOLA BIKE 01:48:34.28 +21:40 16,579
49 229 TORTOLANI Ugo M 1971 M5 7 BOMBARDIER SQUADRA CORSE ASD 01:50:36.28 +23:42 16,274
50 122 CECCARONI Matteo M 1976 M4 8 ASD BLACK ROAD 01:50:58.77 +24:04 16,219
51 51 FIORINI Fabio M 1966 M6 4 KTM ASD SCATENATI 01:51:08.52 +24:14 16,195
52 75 CAPANNA Stefano M 1982 M2 11 ONLY BIKERS 01:51:10.27 +24:16 16,191
53 72 FABRELLI Francesco M 1977 M3 9 ASDC VALLE DEL CONCA NORDIC WALKING 01:51:43.28 +24:49 16,112
54 62 CAMPIDELLI Sauro M 1963 M6 5 ASD BLACK ROAD 01:52:06.52 +25:12 16,056
55 175 BOLLINI Stefano M 1980 M3 10 SAN MARINO MTB TEAM 01:52:41.76 +25:47 15,972
56 21 FREGNANI Sauro M 1975 M4 9 ASD TORPADO-SUDTIROL INTERNATIONAL MTB PRO TEAM
01:52:41.76 +25:47 15,972
57 170 ANGELI Marco M 1974 M4 10 GRUPPO TNT 01:53:16.02 +26:21 15,892
58 76 COZZOLINO Claudio M 1974 M4 11 UISP FORLI CESENA 01:53:27.77 +26:33 15,864
59 12 CASTELLARI Valerio M 1964 M6 6 ASD LR BIKE TEAM 01:53:33.27 +26:39 15,851
60 97 SANTI Danilo M 1972 M4 12 BIKE 2000 ASD 01:53:57.52 +27:03 15,795

Classifiche Elaborate da SMS Sport


Pag. 1/3
RIOFREDDO MTB
RIOFREDDO (FC) 04/07/2021
gran fondo (30 KM)

Pos Nr. Nominativo Atleta G Nato il Cat Pos Nome Squadra Tempo Gap Km/h
61 223 IMOLESI Andrea M 1995 ELMT 5 TEAM SPACCO ASD 01:54:19.26 +27:25 15,745
62 184 SARTI Davide M 1987 M1 8 CICLI MATTEONI - BIANCHI 01:54:41.51 +27:47 15,694
63 109 REGGIDORI Andrea M 1974 M4 13 BARACCA LUGO MTB 01:54:51.26 +27:57 15,672
64 125 LA GRECA Salvatore M 1981 M3 11 ASDC VALLE DEL CONCA NORDIC WALKING 01:55:43.25 +28:49 15,555
65 121 COMANDINI Andrea M 1976 M4 14 BAD SKULL ASD 01:55:57.01 +29:02 15,524
66 52 MARTINI Matteo M 1988 M1 9 CICLI MATTEONI - BIANCHI 01:56:06.76 +29:12 15,502
67 94 NISI Luca M 1993 ELMT 6 180 BPM 01:56:20.76 +29:26 15,471
68 222 MANUZZI Mirco M 1989 M1 10 GOOD BIKE MTB 01:56:58.76 +30:04 15,387
69 176 DIANINI Filippo M 1988 M1 11 BIDENTE BIKE PROJECT ASD 01:57:07.51 +30:13 15,368
70 209 PAZZI Nicolas M 1993 ELMT 7 KTM ASD SCATENATI 01:57:15.76 +30:21 15,350
71 218 REGAZZI Alberto M 1972 M4 15 VEE TIRE CO TEAM RACE 01:57:19.01 +30:24 15,343
72 69 PARA Massimo M 1964 M6 7 COMERO BIKE 01:57:31.25 +30:37 15,316
73 162 STROCCHI Mattia M 1982 M2 12 NICO PER SEMPRE 01:57:50.75 +30:56 15,274
74 120 ZANI Alan M 1982 M2 13 ASD BLACK ROAD 01:57:57.01 +31:02 15,261
75 19 AMADASI Enrico M 1954 M7 2 BAMBANA BIKE 01:58:18.51 +31:24 15,214
76 201 GARDRAT Franck M 1974 M4 16 TEAM HERO MY BIKE 01:59:07.75 +32:13 15,110
77 77 BATTELLI Simone M 1978 M3 12 ASDC VALLE DEL CONCA NORDIC WALKING 01:59:40.50 +32:46 15,041
78 50 RICCI Marcello M 1958 M7 3 ASDC VALLE DEL CONCA NORDIC WALKING 02:00:03.24 +33:09 14,993
79 67 BALDAZZI Andrea M 1976 M4 17 BOMBARDIER SQUADRA CORSE ASD 02:01:09.50 +34:15 14,857
80 206 CORRADETTI Luca M 1978 M3 13 PEDALE RIMINESE FRECCE ROSSE 02:01:31.99 +34:37 14,811
81 65 BIANCHINI Giorgio M 1962 M6 8 BAMBANA BIKE 02:01:34.74 +34:40 14,805
82 227 MANCINI Gabriele M 1977 M3 14 COMERO BIKE 02:02:20.24 +35:26 14,713
83 84 NERI Fabio M 1965 M6 9 BAMBANA BIKE 02:02:29.49 +35:35 14,695
84 124 ZANI Michele M 1989 M1 12 GRUPPO TNT 02:02:34.24 +35:40 14,685
85 42 FABBRI Domenico M 1961 M7 4 BAMBANA BIKE 02:02:39.49 +35:45 14,675
86 221 CASADEI Cristian M 1988 M1 13 BIKE CORNER BERTINORO ASD 02:02:40.74 +35:46 14,672
87 66 MESSINA Giuseppe M 1959 M7 5 BAMBANA BIKE 02:03:11.99 +36:17 14,610
88 104 EUSEBI Mauro M 1961 M7 6 ASD BLACK ROAD 02:03:38.99 +36:44 14,557
89 81 FABBRI Fabio M 1962 M6 10 KTM ASD SCATENATI 02:03:46.98 +36:52 14,542
90 216 BURZACCA Andrea M 1961 M7 7 SURFING SHOP SPORT PROMOTION 02:04:29.24 +37:35 14,459
91 226 GREGORI Antonio M 1959 M7 8 COMERO BIKE 02:04:58.99 +38:04 14,402
92 235 ANCARANI Giulio M 1961 M7 9 180 BPM 02:05:03.73 +38:09 14,393
93 24 BARTOLINI Valeria F 1973 MW2 1 BOMBARDIER SQUADRA CORSE ASD 02:05:14.73 +38:20 14,372
94 228 MAZZOLI Leonardo M 1976 M4 18 COMERO BIKE 02:05:25.73 +38:31 14,351
95 63 RUGGIERO Bruno M 1961 M7 10 TEAM PASSION FAENTINA 02:05:35.98 +38:41 14,331
96 123 SASDELLI Michele M 1972 M4 19 ARRIVANO I REGAZ!!! ASD 02:06:27.72 +39:33 14,234
97 27 MACCHEROZZI Marta F 1972 MW2 2 KILOMETROZERO ASD 02:07:19.98 +40:25 14,136
98 207 FAGGIOLINI Cristian M 1974 M4 20 AFTER SKULL ROUGE RACING 02:07:23.23 +40:29 14,130
99 180 SERVADEI Valter M 1958 M7 11 KTM ASD SCATENATI 02:07:27.72 +40:33 14,122
100 29 PENSERINI Nicolo' M 2004 JUN 3 ASD TEAM BIKE VALCONCA 02:07:39.22 +40:45 14,101
101 9 ZOLI Martina F 1992 MW1 1 CICLI MATTEONI - BIANCHI 02:08:22.73 +41:28 14,021
102 88 BABINI Giovanni M 1960 M7 12 TEAM PASSION FAENTINA 02:09:49.96 +42:55 13,864
103 130 VEGGETTI Alberto M 1972 M4 21 ASD LR BIKE TEAM 02:11:29.96 +44:35 13,688
104 53 CAVULLA Annarita F 1969 MW2 3 BOMBARDIER SQUADRA CORSE ASD 02:11:44.22 +44:50 13,664
105 54 AMADUCCI Roberto M 1958 M7 13 180 BPM 02:11:54.96 +45:00 13,645
106 234 DI CINTIO Giampiero M 1963 M6 11 ITALIA NUOVA BORGO PANIGALE 02:12:56.46 +46:02 13,540
107 108 SGRECCIA Davide M 1985 M2 14 180 BPM 02:13:26.46 +46:32 13,489
108 233 FOSCHI Fabio M 1983 M2 15 180 BPM 02:14:06.21 +47:12 13,422
109 182 PAZZINI Gerardo M 1958 M7 14 TEAM COSMOS 02:14:23.46 +47:29 13,394
110 131 CIMMINO Roberto M 1972 M4 22 ASDC VALLE DEL CONCA NORDIC WALKING 02:15:28.45 +48:34 13,287
111 90 FERRI Mauro M 1952 M7 15 BAMBANA BIKE 02:16:18.70 +49:24 13,205
112 214 TERSI Enrico M 1977 M3 15 BAD SKULL ASD 02:19:02.94 +52:08 12,945
113 78 TOSI Massimo M 1959 M7 16 ASD BIKE OR NOTHING TEAM 02:19:08.44 +52:14 12,937
114 232 BISSIONI Lorenzo M 1956 M7 17 ASD SAMBI TEAM 02:20:02.68 +53:08 12,853
115 181 TONELLI Roberto M 1952 M7 18 COMERO BIKE 02:20:20.19 +53:26 12,826
116 10 GUARDIGLI Chiara F 1972 MW2 4 KTM ASD SCATENATI 02:20:22.18 +53:28 12,823
117 126 BERETTA Cristian M 1971 M5 8 SNOOPY BIKE ASD 02:20:38.19 +53:44 12,799
118 202 TADDEI Diego M 1975 M4 23 TEAM HERO MY BIKE 02:20:55.44 +54:01 12,773
119 119 BURCA Paul catalin M 1992 ELMT 8 KILOMETROZERO ASD 02:21:04.18 +54:10 12,760
120 213 MALDINI Simone M 1970 M5 9 TEAM DEL CAPITANO ASD 02:21:53.18 +54:59 12,686

Classifiche Elaborate da SMS Sport


Pag. 2/3
RIOFREDDO MTB
RIOFREDDO (FC) 04/07/2021
gran fondo (30 KM)

Pos Nr. Nominativo Atleta G Nato il Cat Pos Nome Squadra Tempo Gap Km/h
121 89 GARAVINI Davide M 1964 M6 12 180 BPM 02:27:01.92 +01:00:07 12,242
122 220 LUCIANI Savio M 1964 M6 13 DEKA RIDERS TEAM BIKE ROMAGNA 02:27:46.91 +01:00:52 12,180
123 217 CURLO Fabrizio M 1989 M1 14 TEAM DEL CAPITANO ASD 02:31:05.15 +01:04:11 11,914
124 87 RIGHETTI Pietro M 1957 M7 19 BAMBANA BIKE 02:32:03.40 +01:05:09 11,838
125 211 BENERICETTI Francesca F 1990 MW1 2 DUE RUOTE FORLI RIDEFORFUN! 02:33:46.65 +01:06:52 11,705
126 210 BIGUZZI Davide M 1987 M1 15 DUE RUOTE FORLI RIDEFORFUN! 02:33:46.65 +01:06:52 11,705
127 73 BUZZI Claudia F 1970 MW2 5 BOMBARDIER SQUADRA CORSE ASD 02:34:39.89 +01:07:45 11,638
128 114 TENTI Stefano M 1986 M2 16 ASD SBUBBIKERS 02:35:32.90 +01:08:38 11,572
129 95 BURNAZZI Manuel M 1987 M1 16 BIKE CORNER BERTINORO ASD 02:36:03.15 +01:09:09 11,535
130 236 PACI Filippo M 1976 M4 24 RABITI DURI 02:36:35.89 +01:09:41 11,494
131 101 PELLEGRINI Marco M 1957 M7 20 BAMBANA BIKE 02:39:06.38 +01:12:12 11,313
132 113 DEL BIANCO Mattia M 1982 M2 17 ASD SBUBBIKERS 02:40:00.63 +01:13:06 11,249
133 807 LUSINI Silvano M 1959 CT 1 TRIAL BIKE LUGO 02:41:48.62 +01:14:54 11,124
134 85 GAGLIANO Clara F 1958 MW2 6 BAMBANA BIKE 02:42:14.88 +01:15:20 11,094